Time;durP1;ratioP1;P1;durP2;ratioP2;P2;SDS_P1;SDS_P2;PMS_P1;PMS_P2;Temp;Humidity;BMP_temperature;BMP_pressure;BME280_temperature;BME280_humidity;BME280_pressure;Samples;Min_cycle;Max_cycle;Signal;HPM_P1;HPM_P2
2023/06/23 00:01:31;;;;;;;9.30;6.03;;;19.90;99.90;;;;;;4981306;28;20081;-14
2023/06/23 00:03:59;;;;;;;9.88;6.53;;;19.80;99.90;;;;;;5018336;28;20026;-18
2023/06/23 00:06:25;;;;;;;10.25;6.32;;;19.80;99.90;;;;;;5017415;28;20032;-15
2023/06/23 00:08:51;;;;;;;12.88;6.28;;;19.80;99.90;;;;;;5004121;28;20170;-17
2023/06/23 00:11:17;;;;;;;11.53;6.63;;;19.80;99.90;;;;;;5010439;28;20071;-14
2023/06/23 00:13:42;;;;;;;9.82;6.13;;;19.70;99.90;;;;;;5020025;28;20218;-18
2023/06/23 00:16:08;;;;;;;10.57;6.80;;;19.70;99.90;;;;;;4981708;28;20104;-19
2023/06/23 00:18:36;;;;;;;11.03;6.07;;;19.70;99.90;;;;;;5019685;28;20272;-18
2023/06/23 00:21:03;;;;;;;11.82;6.70;;;19.70;99.90;;;;;;5019848;28;20025;-17
2023/06/23 00:23:30;;;;;;;11.35;6.40;;;19.70;99.90;;;;;;5003376;28;20116;-14
2023/06/23 00:25:57;;;;;;;10.38;6.22;;;19.60;99.90;;;;;;5008022;28;20431;-19
2023/06/23 00:28:23;;;;;;;9.40;5.85;;;19.60;99.90;;;;;;5017636;28;20537;-16
2023/06/23 00:30:49;;;;;;;9.57;5.90;;;19.60;99.90;;;;;;4994874;28;20033;-19
2023/06/23 00:33:15;;;;;;;9.25;5.95;;;19.60;99.90;;;;;;5012195;28;20388;-15
2023/06/23 00:35:41;;;;;;;11.45;6.03;;;19.60;99.90;;;;;;5016852;28;20039;-19
2023/06/23 00:38:07;;;;;;;10.67;5.97;;;19.60;99.90;;;;;;5008898;28;20022;-19
2023/06/23 00:40:34;;;;;;;10.23;6.40;;;19.50;99.90;;;;;;5007089;28;20365;-15
2023/06/23 00:43:00;;;;;;;12.00;6.18;;;19.50;99.90;;;;;;5022130;28;20045;-19
2023/06/23 00:45:26;;;;;;;10.13;6.30;;;19.50;99.90;;;;;;4995507;28;20638;-17
2023/06/23 00:47:52;;;;;;;9.50;5.77;;;19.50;99.90;;;;;;5005149;28;20121;-17
2023/06/23 00:50:21;;;;;;;9.57;5.88;;;19.50;99.90;;;;;;5017817;28;20025;-15
2023/06/23 00:52:52;;;;;;;9.75;5.75;;;19.50;99.90;;;;;;5019932;28;20346;-19
2023/06/23 00:55:23;;;;;;;9.75;5.95;;;19.40;99.90;;;;;;5009978;28;20113;-15
2023/06/23 00:57:50;;;;;;;11.20;6.00;;;19.40;99.90;;;;;;5007968;28;20503;-19
2023/06/23 01:00:18;;;;;;;12.07;6.80;;;19.40;99.90;;;;;;5018381;28;20025;-13
2023/06/23 01:02:54;;;;;;;12.55;6.40;;;19.40;99.90;;;;;;4994468;28;20029;-19
2023/06/23 01:05:23;;;;;;;11.80;6.30;;;19.30;99.90;;;;;;5012885;28;20065;-14
2023/06/23 01:08:31;;;;;;;10.38;6.75;;;19.40;99.90;;;;;;5017970;28;20137;-19
2023/06/23 01:11:23;;;;;;;10.63;6.30;;;19.30;99.90;;;;;;5017866;28;20393;-19
2023/06/23 01:14:08;;;;;;;9.73;6.60;;;19.30;99.90;;;;;;5011937;28;20794;-18
2023/06/23 01:16:49;;;;;;;10.45;6.13;;;19.30;99.90;;;;;;4985617;28;20069;-19
2023/06/23 01:19:50;;;;;;;10.35;6.30;;;19.20;99.90;;;;;;5026973;28;20028;-16
2023/06/23 01:22:27;;;;;;;10.88;6.32;;;19.20;99.70;;;;;;5020984;28;20084;-17
2023/06/23 01:25:12;;;;;;;11.15;6.50;;;19.20;99.90;;;;;;5016257;28;20503;-19
2023/06/23 01:28:10;;;;;;;11.67;6.70;;;19.20;99.90;;;;;;4999486;28;20199;-16
2023/06/23 01:30:39;;;;;;;11.27;7.03;;;19.20;99.90;;;;;;5053997;28;20262;-20
2023/06/23 01:33:15;;;;;;;11.73;6.82;;;19.10;99.90;;;;;;4993194;28;20551;-18
2023/06/23 01:35:44;;;;;;;11.25;6.65;;;19.10;99.90;;;;;;5020421;28;20048;-18
2023/06/23 01:38:27;;;;;;;11.10;6.50;;;19.10;99.90;;;;;;5023365;28;20028;-17
2023/06/23 01:40:55;;;;;;;11.43;6.93;;;19.10;99.90;;;;;;5005553;28;20033;-16
2023/06/23 01:43:29;;;;;;;12.93;7.22;;;19.00;99.90;;;;;;5003366;28;20030;-15
2023/06/23 01:46:04;;;;;;;13.07;7.20;;;19.00;99.90;;;;;;5023178;28;20033;-18
2023/06/23 01:48:34;;;;;;;13.68;6.93;;;19.00;99.90;;;;;;4991237;28;20550;-16
2023/06/23 01:51:02;;;;;;;11.48;7.05;;;19.00;99.90;;;;;;5023176;28;20044;-18
2023/06/23 01:53:31;;;;;;;11.37;7.67;;;19.00;99.90;;;;;;5020857;28;20029;-14
2023/06/23 01:55:59;;;;;;;12.90;7.20;;;19.00;99.90;;;;;;5009198;28;20032;-19
2023/06/23 01:58:26;;;;;;;13.27;7.47;;;19.00;99.90;;;;;;5005148;28;20033;-17
2023/06/23 02:00:53;;;;;;;12.23;7.43;;;18.90;99.90;;;;;;5021431;28;20036;-19
2023/06/23 02:03:20;;;;;;;11.65;7.22;;;18.90;99.90;;;;;;5019638;28;20396;-15
2023/06/23 02:05:48;;;;;;;12.33;6.90;;;18.90;99.90;;;;;;4989671;28;20034;-19
2023/06/23 02:08:16;;;;;;;12.90;7.47;;;18.90;99.90;;;;;;5011606;28;20028;-16
2023/06/23 02:10:42;;;;;;;12.02;7.65;;;18.90;99.90;;;;;;5022255;28;20032;-18
2023/06/23 02:13:09;;;;;;;12.68;7.30;;;18.90;99.90;;;;;;4998292;28;20029;-14
2023/06/23 02:15:36;;;;;;;13.55;7.45;;;18.80;99.90;;;;;;5001491;28;20302;-19
2023/06/23 02:18:02;;;;;;;12.30;7.00;;;18.80;99.90;;;;;;5021328;28;20037;-16
2023/06/23 02:20:29;;;;;;;12.50;7.53;;;18.80;99.90;;;;;;4988559;28;20616;-18
2023/06/23 02:22:56;;;;;;;11.18;7.20;;;18.80;99.90;;;;;;5021446;28;20030;-17
2023/06/23 02:25:22;;;;;;;12.35;6.85;;;18.80;99.90;;;;;;5017495;28;20025;-16
2023/06/23 02:27:49;;;;;;;13.57;7.53;;;18.80;99.90;;;;;;5008590;28;20044;-14
2023/06/23 02:30:19;;;;;;;14.17;7.93;;;18.80;99.90;;;;;;5009618;28;20166;-21
2023/06/23 02:32:47;;;;;;;15.38;7.85;;;18.70;99.90;;;;;;5025524;28;20045;-14
2023/06/23 02:35:13;;;;;;;13.52;7.55;;;18.70;99.90;;;;;;5024245;28;20126;-17
2023/06/23 02:37:41;;;;;;;12.10;7.25;;;18.70;99.90;;;;;;5018275;28;20057;-14
2023/06/23 02:40:16;;;;;;;13.52;7.72;;;18.60;99.90;;;;;;5020820;28;20048;-19
2023/06/23 02:43:17;;;;;;;13.40;7.83;;;18.60;99.90;;;;;;5013714;28;20064;-15
2023/06/23 02:45:47;;;;;;;16.20;7.43;;;18.60;99.90;;;;;;5000129;28;20056;-15
2023/06/23 02:48:17;;;;;;;13.40;7.35;;;18.60;99.90;;;;;;5020085;28;20245;-18
2023/06/23 02:50:45;;;;;;;13.05;7.63;;;18.60;99.90;;;;;;5010105;28;20013;-16
2023/06/23 02:53:18;;;;;;;12.00;7.50;;;18.60;99.90;;;;;;5006179;28;20318;-18
2023/06/23 02:55:46;;;;;;;12.00;7.13;;;18.50;99.90;;;;;;5023571;28;20354;-16
2023/06/23 02:58:15;;;;;;;14.95;7.80;;;18.50;99.90;;;;;;5002040;28;20517;-14
2023/06/23 03:00:43;;;;;;;12.60;6.90;;;18.50;99.90;;;;;;5003324;28;20120;-19
2023/06/23 03:03:14;;;;;;;13.27;7.25;;;18.50;99.90;;;;;;5021312;28;20670;-18
2023/06/23 03:05:40;;;;;;;13.57;7.22;;;18.50;99.90;;;;;;5021209;28;20384;-19
2023/06/23 03:08:06;;;;;;;12.37;7.93;;;18.40;99.90;;;;;;4991149;28;20021;-15
2023/06/23 03:10:33;;;;;;;11.95;7.28;;;18.40;99.90;;;;;;5024206;28;20033;-19
2023/06/23 03:13:02;;;;;;;12.50;7.70;;;18.40;99.90;;;;;;5026591;28;20037;-14
2023/06/23 03:15:29;;;;;;;13.53;7.50;;;18.40;99.90;;;;;;5002991;28;20198;-18
2023/06/23 03:18:15;;;;;;;12.48;7.05;;;18.40;99.90;;;;;;5000482;28;21506;-19
2023/06/23 03:20:46;;;;;;;12.55;7.10;;;18.30;99.90;;;;;;5018201;28;20032;-14
2023/06/23 03:23:13;;;;;;;12.00;6.85;;;18.30;99.90;;;;;;4989228;28;20045;-19
2023/06/23 03:25:43;;;;;;;11.98;7.03;;;18.30;99.90;;;;;;5039783;28;20048;-16
2023/06/23 03:28:12;;;;;;;10.50;6.70;;;18.30;99.90;;;;;;5022031;28;20024;-19
2023/06/23 03:30:45;;;;;;;12.85;7.20;;;18.30;99.90;;;;;;4997451;28;20072;-16
2023/06/23 03:33:34;;;;;;;11.65;6.95;;;18.30;99.90;;;;;;5007319;28;20114;-18
2023/06/23 03:36:16;;;;;;;12.27;7.30;;;18.30;99.90;;;;;;5017141;28;20262;-20
2023/06/23 03:39:03;;;;;;;13.43;6.70;;;18.30;99.90;;;;;;5007254;28;20053;-14
2023/06/23 03:41:30;;;;;;;13.17;7.20;;;18.30;99.90;;;;;;5026533;28;20041;-15
2023/06/23 03:44:23;;;;;;;12.45;7.38;;;18.30;99.90;;;;;;5034408;28;20131;-19
2023/06/23 03:46:57;;;;;;;13.63;7.00;;;18.30;99.90;;;;;;4984458;28;20447;-19
2023/06/23 03:49:28;;;;;;;13.93;7.00;;;18.20;99.90;;;;;;5020492;28;20028;-18
2023/06/23 03:51:57;;;;;;;12.52;7.00;;;18.20;99.90;;;;;;5007335;28;20102;-19
2023/06/23 03:54:25;;;;;;;11.70;7.00;;;18.20;99.90;;;;;;4987132;28;20387;-16
2023/06/23 03:56:53;;;;;;;16.58;7.45;;;18.20;99.90;;;;;;5002055;28;20045;-19
2023/06/23 03:59:21;;;;;;;13.40;7.78;;;18.20;99.90;;;;;;5020489;28;20404;-16
2023/06/23 04:01:48;;;;;;;11.52;7.18;;;18.20;99.90;;;;;;4997270;28;20292;-19
2023/06/23 04:04:17;;;;;;;13.93;7.70;;;18.10;99.90;;;;;;5007446;28;20033;-17
2023/06/23 04:06:46;;;;;;;15.03;8.10;;;18.20;99.90;;;;;;5017970;28;20812;-19
2023/06/23 04:09:14;;;;;;;14.20;7.75;;;18.20;99.90;;;;;;4987176;28;20022;-19
2023/06/23 04:11:42;;;;;;;16.30;8.52;;;18.20;99.90;;;;;;5007556;28;20111;-18
2023/06/23 04:14:09;;;;;;;13.60;8.27;;;18.20;99.90;;;;;;5036269;28;20040;-19
2023/06/23 04:16:40;;;;;;;15.77;8.95;;;18.20;99.90;;;;;;4996447;28;20227;-16
2023/06/23 04:19:08;;;;;;;16.33;8.60;;;18.20;99.90;;;;;;5005358;28;20021;-20
2023/06/23 04:21:36;;;;;;;13.88;8.15;;;18.20;99.90;;;;;;5016747;28;20104;-14
2023/06/23 04:24:05;;;;;;;16.15;8.82;;;18.20;99.90;;;;;;4990246;28;20448;-18
2023/06/23 04:26:34;;;;;;;14.90;8.63;;;18.20;99.90;;;;;;5012121;28;20083;-14
2023/06/23 04:29:04;;;;;;;15.85;9.10;;;18.20;99.90;;;;;;5021143;28;20017;-19
2023/06/23 04:31:32;;;;;;;14.03;8.13;;;18.20;99.90;;;;;;5001260;28;20040;-17
2023/06/23 04:33:58;;;;;;;15.57;8.70;;;18.20;99.90;;;;;;5009983;28;20053;-22
2023/06/23 04:36:28;;;;;;;16.45;8.85;;;18.20;99.90;;;;;;5020353;28;20142;-19
2023/06/23 04:39:08;;;;;;;18.77;9.02;;;18.30;99.90;;;;;;5022036;28;20022;-22
2023/06/23 04:41:37;;;;;;;15.90;8.43;;;18.20;99.90;;;;;;4987347;28;20017;-23
2023/06/23 04:44:07;;;;;;;15.33;8.80;;;18.30;99.90;;;;;;5011513;28;20033;-20
2023/06/23 04:46:38;;;;;;;16.10;9.00;;;18.30;99.90;;;;;;5011168;28;20021;-17
2023/06/23 04:49:08;;;;;;;14.02;8.35;;;18.30;99.90;;;;;;5034029;28;20112;-22
2023/06/23 04:51:43;;;;;;;14.30;8.35;;;18.30;99.90;;;;;;5009106;28;20040;-18
2023/06/23 04:54:18;;;;;;;16.75;8.57;;;18.40;99.90;;;;;;5033212;28;20064;-20
2023/06/23 04:56:48;;;;;;;15.77;9.03;;;18.40;99.90;;;;;;4997772;28;20303;-23
2023/06/23 04:59:17;;;;;;;17.80;9.18;;;18.40;99.90;;;;;;5015125;28;20076;-20
2023/06/23 05:01:44;;;;;;;18.23;9.55;;;18.50;99.90;;;;;;4987658;28;20506;-17
2023/06/23 05:04:11;;;;;;;17.00;10.18;;;18.50;99.90;;;;;;5002118;28;20301;-21
2023/06/23 05:06:39;;;;;;;16.88;9.68;;;18.50;99.90;;;;;;4989017;28;20387;-22
2023/06/23 05:09:06;;;;;;;17.73;9.70;;;18.50;99.90;;;;;;5006925;28;20021;-21
2023/06/23 05:11:33;;;;;;;18.90;10.82;;;18.50;99.90;;;;;;4992807;28;20869;-21
2023/06/23 05:14:02;;;;;;;16.38;9.93;;;18.60;99.90;;;;;;5013524;28;20021;-17
2023/06/23 05:16:28;;;;;;;18.33;10.02;;;18.60;99.90;;;;;;5022317;28;20041;-21
2023/06/23 05:18:55;;;;;;;18.30;10.00;;;18.60;99.90;;;;;;5007342;28;20688;-19
2023/06/23 05:21:25;;;;;;;19.80;10.47;;;18.60;99.90;;;;;;5010593;28;20045;-20
2023/06/23 05:23:53;;;;;;;17.50;9.88;;;18.60;99.90;;;;;;5011200;28;20570;-19
2023/06/23 05:26:20;;;;;;;17.30;10.20;;;18.70;99.90;;;;;;4988955;28;20110;-22
2023/06/23 05:28:48;;;;;;;19.45;10.82;;;18.70;99.90;;;;;;5014894;28;20032;-18
2023/06/23 05:31:16;;;;;;;18.98;10.07;;;18.80;99.90;;;;;;5009098;28;20054;-22
2023/06/23 05:33:44;;;;;;;18.57;10.20;;;18.70;99.90;;;;;;5007554;28;20151;-20
2023/06/23 05:36:12;;;;;;;20.08;10.50;;;18.80;99.90;;;;;;5013230;28;20124;-22
2023/06/23 05:38:41;;;;;;;18.10;10.60;;;18.80;99.90;;;;;;4992095;28;20072;-22
2023/06/23 05:41:07;;;;;;;20.23;10.93;;;18.80;99.90;;;;;;4988304;28;20357;-22
2023/06/23 05:43:33;;;;;;;18.70;10.63;;;18.90;99.90;;;;;;5024080;28;20365;-21
2023/06/23 05:46:01;;;;;;;18.70;10.40;;;18.90;99.90;;;;;;5008579;28;20041;-18
2023/06/23 05:48:37;;;;;;;19.33;10.63;;;18.90;99.90;;;;;;4997125;28;20025;-22
2023/06/23 05:51:08;;;;;;;20.42;11.20;;;19.00;99.90;;;;;;5043387;28;20037;-23
2023/06/23 05:53:38;;;;;;;18.35;10.35;;;19.00;99.90;;;;;;4988158;28;20033;-22
2023/06/23 05:56:21;;;;;;;19.90;10.53;;;19.10;99.90;;;;;;5001965;28;20241;-22
2023/06/23 05:58:55;;;;;;;21.17;10.70;;;19.10;99.90;;;;;;4982724;28;20041;-19
2023/06/23 06:01:23;;;;;;;17.90;10.50;;;19.20;99.90;;;;;;5014130;28;20512;-23
2023/06/23 06:04:20;;;;;;;18.17;10.60;;;19.20;99.90;;;;;;5001907;28;20753;-17
2023/06/23 06:06:48;;;;;;;18.92;10.55;;;19.30;99.90;;;;;;5009053;28;20277;-18
2023/06/23 06:09:15;;;;;;;19.50;9.43;;;19.40;99.90;;;;;;4988953;28;20022;-20
2023/06/23 06:11:43;;;;;;;18.50;10.10;;;19.40;99.90;;;;;;5021318;28;20028;-17
2023/06/23 06:14:10;;;;;;;18.25;10.23;;;19.50;99.90;;;;;;5017356;28;20139;-21
2023/06/23 06:16:37;;;;;;;18.20;10.48;;;19.60;99.90;;;;;;5012861;28;20021;-20
2023/06/23 06:19:03;;;;;;;17.88;10.45;;;19.60;99.90;;;;;;5015328;28;20079;-20
2023/06/23 06:21:32;;;;;;;20.23;11.33;;;19.70;99.90;;;;;;4995575;28;20029;-20
2023/06/23 06:23:59;;;;;;;17.30;10.35;;;19.70;99.90;;;;;;5000891;28;22326;-21
2023/06/23 06:26:26;;;;;;;19.88;10.65;;;19.80;99.90;;;;;;5025362;28;20096;-21
2023/06/23 06:28:56;;;;;;;19.15;11.05;;;19.80;99.90;;;;;;4985403;28;20037;-22
2023/06/23 06:31:23;;;;;;;18.60;10.88;;;19.80;99.90;;;;;;5022656;28;20491;-20
2023/06/23 06:33:51;;;;;;;17.47;10.73;;;19.90;99.90;;;;;;5013856;28;20080;-18
2023/06/23 06:36:20;;;;;;;16.95;9.60;;;19.90;99.90;;;;;;5006918;28;20111;-20
2023/06/23 06:38:48;;;;;;;20.00;11.38;;;20.00;99.90;;;;;;4998896;28;20029;-18
2023/06/23 06:41:15;;;;;;;19.92;11.13;;;20.10;99.90;;;;;;5020756;28;20033;-22
2023/06/23 06:43:40;;;;;;;18.08;10.88;;;20.10;99.90;;;;;;5008736;28;20526;-17
2023/06/23 06:46:07;;;;;;;18.20;10.67;;;20.10;99.90;;;;;;5005794;28;20236;-23
2023/06/23 06:48:34;;;;;;;18.02;11.07;;;20.20;99.90;;;;;;5014453;28;20036;-18
2023/06/23 06:51:01;;;;;;;16.95;10.10;;;20.30;99.90;;;;;;5016646;28;20128;-22
2023/06/23 06:53:28;;;;;;;18.75;11.15;;;20.30;99.90;;;;;;5001315;28;20507;-22
2023/06/23 06:55:55;;;;;;;17.73;10.00;;;20.40;99.90;;;;;;4995379;28;20048;-18
2023/06/23 06:58:21;;;;;;;17.98;10.30;;;20.40;99.90;;;;;;5017946;28;20651;-22
2023/06/23 07:00:47;;;;;;;16.63;9.55;;;20.40;99.90;;;;;;4983487;28;20128;-17
2023/06/23 07:03:15;;;;;;;19.73;10.52;;;20.50;99.90;;;;;;5013916;28;20024;-22
2023/06/23 07:05:41;;;;;;;17.65;9.82;;;20.60;99.90;;;;;;5018617;28;20048;-17
2023/06/23 07:08:07;;;;;;;14.87;9.40;;;20.60;99.90;;;;;;4988839;28;20194;-18
2023/06/23 07:10:34;;;;;;;15.98;9.25;;;20.70;99.90;;;;;;4993006;28;20868;-22
2023/06/23 07:13:00;;;;;;;15.80;9.70;;;20.70;99.90;;;;;;5012408;28;20048;-18
2023/06/23 07:15:26;;;;;;;16.77;9.77;;;20.80;99.90;;;;;;4987088;28;20030;-22
2023/06/23 07:17:53;;;;;;;16.40;8.97;;;20.90;99.90;;;;;;5020915;28;20732;-21
2023/06/23 07:20:19;;;;;;;14.20;8.40;;;20.90;99.90;;;;;;5007857;28;20231;-20
2023/06/23 07:22:45;;;;;;;13.93;8.10;;;21.00;99.90;;;;;;5020982;28;20514;-22
2023/06/23 07:25:11;;;;;;;13.40;7.90;;;21.10;99.90;;;;;;5000671;28;20033;-17
2023/06/23 07:27:37;;;;;;;12.67;7.57;;;21.20;99.90;;;;;;5005788;28;20126;-22
2023/06/23 07:30:04;;;;;;;13.63;7.65;;;21.30;99.90;;;;;;5012030;28;20039;-17
2023/06/23 07:32:30;;;;;;;13.85;7.93;;;21.40;99.90;;;;;;4983640;28;20037;-21
2023/06/23 07:34:56;;;;;;;13.60;8.13;;;21.40;99.90;;;;;;5013595;28;20040;-22
2023/06/23 07:37:22;;;;;;;12.27;7.50;;;21.50;99.90;;;;;;5023171;28;20254;-22
2023/06/23 07:39:47;;;;;;;16.73;7.65;;;21.60;99.90;;;;;;5004148;28;20512;-21
2023/06/23 07:42:13;;;;;;;12.33;7.10;;;21.70;99.90;;;;;;5000056;28;20538;-16
2023/06/23 07:44:39;;;;;;;13.10;7.53;;;21.80;99.90;;;;;;5013795;28;20021;-20
2023/06/23 07:47:06;;;;;;;12.80;8.18;;;21.90;99.90;;;;;;4986808;28;20043;-17
2023/06/23 07:49:31;;;;;;;12.07;8.10;;;21.90;99.90;;;;;;5008101;28;20643;-21
2023/06/23 07:52:00;;;;;;;15.43;8.38;;;22.10;99.90;;;;;;5021241;28;20041;-17
2023/06/23 07:54:28;;;;;;;13.57;7.93;;;22.10;99.90;;;;;;5004541;28;20564;-20
2023/06/23 07:56:54;;;;;;;12.98;7.90;;;22.20;99.90;;;;;;5023222;28;20381;-16
2023/06/23 07:59:19;;;;;;;13.17;8.43;;;22.30;99.90;;;;;;4989645;28;20119;-16
2023/06/23 08:01:45;;;;;;;15.02;8.30;;;22.40;99.90;;;;;;5019729;28;20036;-16
2023/06/23 08:04:11;;;;;;;14.03;8.20;;;22.50;99.90;;;;;;4985939;28;20083;-16
2023/06/23 08:06:37;;;;;;;13.45;8.05;;;22.60;99.90;;;;;;5012507;28;20017;-16
2023/06/23 08:09:02;;;;;;;12.68;8.25;;;22.80;99.90;;;;;;5023205;28;20030;-18
2023/06/23 08:11:28;;;;;;;14.03;8.47;;;22.90;99.90;;;;;;5001040;28;20174;-16
2023/06/23 08:13:54;;;;;;;13.85;8.00;;;23.10;99.90;;;;;;4998754;28;20029;-16
2023/06/23 08:16:21;;;;;;;10.55;7.00;;;23.30;99.90;;;;;;5010658;28;20039;-16
2023/06/23 08:18:47;;;;;;;9.97;6.50;;;23.50;99.90;;;;;;4984268;28;20495;-15
2023/06/23 08:21:12;;;;;;;9.82;6.68;;;23.80;99.90;;;;;;5008708;28;20044;-18
2023/06/23 08:23:40;;;;;;;9.30;6.28;;;24.20;99.90;;;;;;5025555;28;20058;-16
2023/06/23 08:26:05;;;;;;;7.87;5.37;;;24.60;99.90;;;;;;5034658;28;20061;-17
2023/06/23 08:28:31;;;;;;;8.82;6.75;;;25.00;99.90;;;;;;5024585;28;20785;-17
2023/06/23 08:30:57;;;;;;;9.30;5.93;;;25.40;99.90;;;;;;5002904;28;20042;-16
2023/06/23 08:33:23;;;;;;;8.80;5.83;;;25.90;99.90;;;;;;4987893;28;20127;-16
2023/06/23 08:35:49;;;;;;;9.20;6.00;;;26.30;99.90;;;;;;5022167;28;20055;-17
2023/06/23 08:38:16;;;;;;;8.23;6.03;;;26.60;99.90;;;;;;5020558;28;20029;-16
2023/06/23 08:40:42;;;;;;;9.10;5.63;;;27.00;99.90;;;;;;5007606;28;20048;-16
2023/06/23 08:43:12;;;;;;;7.93;5.47;;;27.40;99.90;;;;;;5023409;28;20021;-16
2023/06/23 08:45:44;;;;;;;7.25;5.10;;;27.70;99.90;;;;;;5004913;28;20039;-15
2023/06/23 08:48:11;;;;;;;7.17;5.17;;;28.00;99.90;;;;;;4982751;28;20029;-16
2023/06/23 08:50:37;;;;;;;8.00;5.47;;;28.30;99.90;;;;;;5017474;28;20022;-17
2023/06/23 08:53:06;;;;;;;6.85;5.03;;;28.60;99.90;;;;;;5005325;28;20063;-15
2023/06/23 08:55:33;;;;;;;6.65;5.10;;;28.90;99.90;;;;;;5020521;28;20571;-17
2023/06/23 08:58:02;;;;;;;7.75;4.95;;;29.20;99.90;;;;;;4988602;28;20450;-12
2023/06/23 09:00:28;;;;;;;6.83;5.10;;;29.50;99.90;;;;;;5003976;28;20551;-13
2023/06/23 09:02:57;;;;;;;7.32;5.65;;;29.80;99.90;;;;;;4987480;28;20025;-14
2023/06/23 09:05:23;;;;;;;6.85;5.20;;;30.10;99.90;;;;;;5029337;28;20020;-13
2023/06/23 09:07:49;;;;;;;6.88;5.05;;;30.30;99.90;;;;;;5024093;28;20025;-13
2023/06/23 09:10:17;;;;;;;6.03;5.10;;;30.60;99.90;;;;;;5021046;28;20025;-14
2023/06/23 09:13:10;;;;;;;6.00;4.37;;;30.80;99.90;;;;;;5006648;28;20383;-14
2023/06/23 09:15:38;;;;;;;5.95;5.05;;;31.10;99.90;;;;;;5001145;28;20407;-14
2023/06/23 09:18:04;;;;;;;6.65;5.07;;;31.40;99.90;;;;;;5017499;28;20693;-14
2023/06/23 09:20:30;;;;;;;6.03;5.10;;;31.50;99.90;;;;;;4990432;28;20033;-14
2023/06/23 09:22:58;;;;;;;5.90;4.85;;;31.70;99.90;;;;;;5004166;28;20029;-13
2023/06/23 09:25:43;;;;;;;5.70;4.53;;;31.80;99.90;;;;;;5026052;28;20021;-13
2023/06/23 09:28:31;;;;;;;5.20;4.18;;;32.00;96.40;;;;;;5009696;28;20367;-14
2023/06/23 09:30:59;;;;;;;6.63;4.53;;;32.20;96.80;;;;;;4990488;28;20570;-12
2023/06/23 09:33:26;;;;;;;5.65;4.50;;;32.30;99.90;;;;;;5022851;28;20176;-14
2023/06/23 09:35:56;;;;;;;5.15;4.22;;;32.50;99.90;;;;;;4979513;28;20045;-13
2023/06/23 09:38:26;;;;;;;5.17;4.20;;;32.70;99.10;;;;;;5029545;28;20409;-13
2023/06/23 09:41:16;;;;;;;5.45;4.38;;;32.90;99.50;;;;;;5020884;28;20033;-14
2023/06/23 09:43:52;;;;;;;4.70;3.47;;;33.10;95.40;;;;;;5022765;28;20037;-14
2023/06/23 09:46:20;;;;;;;4.43;3.90;;;33.30;98.80;;;;;;5013193;28;20484;-14
2023/06/23 09:48:49;;;;;;;4.70;3.85;;;33.40;99.90;;;;;;4999147;28;20254;-14
2023/06/23 09:51:18;;;;;;;5.03;4.10;;;33.60;99.90;;;;;;4987181;28;20033;-14
2023/06/23 09:53:44;;;;;;;4.40;3.55;;;33.80;99.90;;;;;;5021437;28;20116;-15
2023/06/23 09:56:15;;;;;;;4.75;4.00;;;34.00;99.90;;;;;;5023629;28;20116;-13
2023/06/23 09:58:42;;;;;;;4.65;4.00;;;34.10;98.30;;;;;;5042143;28;20037;-16
2023/06/23 10:01:15;;;;;;;4.90;4.22;;;34.30;99.80;;;;;;5018756;28;20143;-15
2023/06/23 10:03:52;;;;;;;4.27;3.67;;;34.50;97.20;;;;;;5002940;28;20030;-14
2023/06/23 10:06:37;;;;;;;5.65;3.85;;;34.50;97.60;;;;;;4976792;28;20041;-13
2023/06/23 10:09:09;;;;;;;5.70;4.18;;;34.50;96.30;;;;;;5022828;28;20309;-15
2023/06/23 10:11:37;;;;;;;4.75;4.25;;;34.40;95.60;;;;;;5021892;28;20048;-15
2023/06/23 10:14:10;;;;;;;4.22;3.80;;;34.50;97.70;;;;;;5021307;28;20915;-13
2023/06/23 10:16:37;;;;;;;4.63;3.77;;;34.50;97.30;;;;;;5005495;28;20029;-14
2023/06/23 10:19:04;;;;;;;4.18;3.70;;;34.50;97.90;;;;;;4999543;28;20158;-14
2023/06/23 10:21:31;;;;;;;4.22;3.35;;;34.50;98.20;;;;;;5002835;28;20104;-15
2023/06/23 10:24:03;;;;;;;3.70;3.15;;;34.60;98.40;;;;;;4995214;28;20232;-16
2023/06/23 10:26:31;;;;;;;4.43;4.00;;;34.70;97.90;;;;;;5020237;28;20101;-15
2023/06/23 10:28:58;;;;;;;4.60;3.87;;;34.80;99.10;;;;;;5019064;28;20679;-17
2023/06/23 10:31:29;;;;;;;4.82;4.07;;;35.00;99.30;;;;;;5009080;28;20047;-14
2023/06/23 10:33:59;;;;;;;5.38;4.18;;;35.10;98.90;;;;;;4999305;28;20266;-14
2023/06/23 10:36:26;;;;;;;4.75;3.70;;;35.30;97.50;;;;;;5015855;28;20286;-14
2023/06/23 10:38:54;;;;;;;4.18;3.78;;;35.30;98.80;;;;;;4976184;28;20052;-14
2023/06/23 10:41:20;;;;;;;4.40;3.60;;;35.40;97.00;;;;;;5013567;28;21031;-13
2023/06/23 10:43:47;;;;;;;4.78;3.70;;;35.30;96.80;;;;;;5018250;28;20316;-14
2023/06/23 10:46:16;;;;;;;5.38;3.40;;;35.30;96.20;;;;;;5005271;28;20040;-13
2023/06/23 10:48:43;;;;;;;4.38;3.45;;;35.20;94.80;;;;;;5017942;28;20030;-16
2023/06/23 10:51:10;;;;;;;4.40;3.42;;;35.30;97.50;;;;;;4998515;28;20036;-13
2023/06/23 10:54:00;;;;;;;4.33;3.40;;;35.20;97.70;;;;;;5002162;28;20047;-17
2023/06/23 10:56:41;;;;;;;5.07;4.03;;;35.30;94.20;;;;;;5016852;28;20464;-18
2023/06/23 10:59:18;;;;;;;3.88;3.47;;;35.60;93.70;;;;;;5026850;28;20031;-13
2023/06/23 11:02:08;;;;;;;4.15;3.60;;;35.70;94.20;;;;;;4998134;28;20475;-15
2023/06/23 11:04:38;;;;;;;3.72;3.17;;;35.90;90.60;;;;;;5018890;28;20535;-16
2023/06/23 11:07:07;;;;;;;3.40;2.90;;;35.90;95.20;;;;;;4988212;28;20030;-14
2023/06/23 11:09:44;;;;;;;3.33;2.80;;;36.00;94.30;;;;;;5007773;28;20025;-16
2023/06/23 11:12:30;;;;;;;3.47;3.17;;;36.00;92.80;;;;;;5023620;28;20075;-12
2023/06/23 11:15:12;;;;;;;3.95;2.97;;;36.10;91.00;;;;;;5050697;28;20169;-13
2023/06/23 11:17:44;;;;;;;3.75;3.30;;;36.20;92.40;;;;;;5002353;28;20188;-17
2023/06/23 11:20:11;;;;;;;3.80;2.97;;;36.30;92.60;;;;;;5019884;28;20029;-15
2023/06/23 11:23:07;;;;;;;3.65;3.03;;;36.30;94.70;;;;;;4998380;28;20076;-16
2023/06/23 11:25:44;;;;;;;3.95;3.55;;;36.30;90.60;;;;;;4985072;28;20400;-16
2023/06/23 11:28:28;;;;;;;4.25;3.67;;;36.30;95.70;;;;;;5016462;28;20040;-14
2023/06/23 11:31:07;;;;;;;3.40;2.95;;;36.50;91.30;;;;;;5019485;28;20131;-13
2023/06/23 11:33:33;;;;;;;3.50;2.50;;;36.60;96.30;;;;;;5004241;28;20041;-18
2023/06/23 11:36:01;;;;;;;3.20;2.90;;;36.70;95.10;;;;;;5019173;28;20119;-13
2023/06/23 11:38:29;;;;;;;3.15;2.83;;;36.70;94.80;;;;;;5011182;28;20028;-14
2023/06/23 11:40:59;;;;;;;3.10;2.70;;;36.80;95.00;;;;;;4984340;28;20254;-14
2023/06/23 11:43:25;;;;;;;3.40;3.10;;;36.90;95.00;;;;;;5022648;28;20052;-14
2023/06/23 11:46:09;;;;;;;3.03;2.72;;;37.00;95.20;;;;;;5014602;28;20166;-14
2023/06/23 11:48:39;;;;;;;2.72;2.53;;;37.10;88.70;;;;;;5021282;28;20037;-16
2023/06/23 11:51:07;;;;;;;2.97;2.67;;;37.20;94.60;;;;;;5020725;28;20055;-14
2023/06/23 11:53:33;;;;;;;2.72;2.53;;;37.40;94.40;;;;;;4999443;28;20087;-16
2023/06/23 11:56:00;;;;;;;3.30;3.00;;;37.50;94.90;;;;;;5019929;28;20033;-13
2023/06/23 11:58:31;;;;;;;2.92;2.63;;;37.60;94.50;;;;;;4983721;28;20038;-14
2023/06/23 12:00:57;;;;;;;2.75;2.50;;;37.70;91.10;;;;;;5009348;28;20419;-15
2023/06/23 12:03:22;;;;;;;2.50;2.30;;;37.80;94.50;;;;;;5014372;28;20044;-14
2023/06/23 12:05:48;;;;;;;2.90;2.53;;;37.90;94.10;;;;;;4994822;28;20030;-14
2023/06/23 12:08:14;;;;;;;3.30;3.00;;;37.90;93.90;;;;;;4992023;28;20083;-14
2023/06/23 12:10:41;;;;;;;3.50;3.20;;;38.00;93.70;;;;;;5004331;28;20153;-14
2023/06/23 12:13:09;;;;;;;3.28;2.95;;;38.10;93.50;;;;;;4987828;28;20492;-14
2023/06/23 12:15:42;;;;;;;3.30;3.00;;;38.20;93.20;;;;;;5017982;28;20409;-17
2023/06/23 12:18:09;;;;;;;3.50;3.07;;;38.20;85.60;;;;;;5018087;28;20078;-14
2023/06/23 12:20:37;;;;;;;3.03;2.58;;;38.10;90.80;;;;;;4998920;28;20474;-15
2023/06/23 12:23:04;;;;;;;2.55;2.28;;;37.90;90.50;;;;;;4992144;28;20265;-14
2023/06/23 12:25:34;;;;;;;2.90;2.30;;;37.70;90.20;;;;;;5017909;28;20033;-14
2023/06/23 12:28:05;;;;;;;3.58;2.78;;;37.50;90.40;;;;;;4980987;28;20650;-14
2023/06/23 12:30:41;;;;;;;3.47;2.97;;;37.40;90.90;;;;;;5012123;28;20025;-15
2023/06/23 12:33:23;;;;;;;3.00;2.70;;;37.30;84.90;;;;;;5019575;28;20112;-14
2023/06/23 12:36:02;;;;;;;3.45;2.72;;;37.40;85.20;;;;;;5006516;28;20029;-14
2023/06/23 12:38:38;;;;;;;3.95;3.10;;;37.30;83.90;;;;;;5000051;28;20041;-14
2023/06/23 12:41:26;;;;;;;2.90;2.45;;;37.20;84.60;;;;;;4999103;28;20045;-16
2023/06/23 12:44:03;;;;;;;3.80;3.40;;;37.10;82.80;;;;;;4976868;28;20052;-15
2023/06/23 12:46:30;;;;;;;3.75;3.30;;;37.10;83.80;;;;;;5028177;28;20388;-14
2023/06/23 12:48:57;;;;;;;4.22;3.60;;;37.00;91.00;;;;;;5013987;28;20024;-17
2023/06/23 12:51:37;;;;;;;4.20;3.10;;;37.00;90.90;;;;;;5002146;28;20041;-14
2023/06/23 12:54:04;;;;;;;4.38;2.83;;;37.10;84.10;;;;;;5017070;28;20030;-20
2023/06/23 12:56:30;;;;;;;3.27;2.97;;;37.10;90.60;;;;;;5015420;28;20672;-15